Terminal Aerodrome Forecast
Issued by NWS

Current Version | Previous Version | Text Only | Print | Product List | Glossary On
Versions: 1 2 3 4 5 6 7 8 9 10 11 12 13 14 15 16 17
000
FTUS43 KMPX 251736
TAFAXN
TAF
KAXN 251736Z 2518/2618 11008KT P6SM OVC010
     FM252000 11009KT P6SM OVC015
      TEMPO 2521/2524 SCT018
     FM260200 08008KT P6SM OVC018
     FM260800 07006KT P6SM OVC008=

USA.gov is the U.S. government's official web portal to all federal, state and local government web resources and services.